Portada
METAR-TAF:

METAR-TAF

Aeroports :

Ilhéus, Bahia, Brasil

latitud: 14-49S, longitud: 039-02W, altitud: 4 m

Observació

L'informe es va fer fa 53 minuts, a les 10:00 UTC
Vent 5 kt del Oest
Temperatura 19°C
Humitat 100%
Pressió 1017 hPa
Visibilitat 10 km o més
Escasses núvols a una alçada de 2500 ft

METAR: SBIL 161000Z 28005KT 9999 FEW025 19/19 Q1017

Hora: 07:53 (10:53 UTC)

Pronòstic

L'informe es va fer fa 6 hores i 53 minuts, a les 04:00 UTC
Pronòstic vàlid del 16 a les 06 UTC al 16 a les 18 UTC
Vent 5 kt del Oest
Visibilitat 10 km o més
Núvols disperses a una alçada de 2000 ft
Evolucionant progressivament
l' 16 a les 13 UTC al 16 a les 15 UTC
Vent 5 kt del Nord/Nord-Est
Escasses núvols a una alçada de 2500 ft

TAF: SBIL 160400Z 1606/1618 26005KT 9999 SCT020 TN22/1608Z TX28/1615Z BECMG 1613/1615 03005KT FEW025 RMK PAZ

Observacions i pronòstics meteorològics de més de 4000 aeroports (METAR i TAF).

Les estacions disponibles són els punts grocs i vermells al mapa.

Posi el ratolí al punt desitjat per veure el nom de l'estació.

Feu clic per veure les observacions i els pronòstics meteorològics.

Per canviar el mapa: feu clic els botons verds amb una creu de color negre per apropar; al botó verd amb un guió per allunyar la imatge; o en les fletxes verdes per a mapes adjacents.


METAR-TAF: